»·PEaware :: N3144V L52-L88

N3144V :: L52-L88

FLIGHT INFORMATION

Flight Status: Arrived
Operator: Privately registered:
United States
More flights under this callsign
Pilot: Peter S. (28770)
Aircraft: CESSNA 172 SKYHAWK
(C172)
More flights by this aircraft type
Origin: L52 Oceano Co
United States
Destination: L88 New Cuyama
United States
More flights between these airports :: More routes between these airports
Route: L52 WYNNR L88
File this flight plan on PilotEdge
Remarks:
Altitude:
(Current/Filed)
6,000ft
Speed:
(Current/Filed)
124kts
Departed: 11-Apr-20 06:58 PM
Arrived: 11-Apr-20 07:26 PM
Distance/Time
Traveled:
47nm/0:28
Distance/Time
To Go:
Arrived

Flight Plot

Page will automatically refresh every two minutes.


Map Options




Map Legend


Flown Route
Filed Route
Departure Airport
Arrival Airport
Navaid (VOR, NDB)
Fix

Horizontal Profiles

Position Reports

Time Latitude Longitude Heading Altitude Ground
Speed
11-Apr-20 18:48 35.102274 -120.622530 210 16ft 0kts
11-Apr-20 18:49 35.102274 -120.622530 210 16ft 0kts
11-Apr-20 18:50 35.101878 -120.622133 223 16ft 0kts
11-Apr-20 18:51 35.101119 -120.622760 162 15ft 0kts
11-Apr-20 18:52 35.100239 -120.620753 121 17ft 19kts
11-Apr-20 18:53 35.099513 -120.619495 32 17ft 0kts
11-Apr-20 18:54 35.099514 -120.619494 32 17ft 0kts
11-Apr-20 18:55 35.099515 -120.619493 41 17ft 0kts
11-Apr-20 18:56 35.102681 -120.625282 295 438ft 40kts
11-Apr-20 18:57 35.108861 -120.636294 333 1407ft 43kts
11-Apr-20 18:58 35.115575 -120.616408 76 2328ft 78kts
11-Apr-20 18:59 35.112098 -120.588974 93 3296ft 79kts
11-Apr-20 19:00 35.107414 -120.560214 93 4154ft 92kts
11-Apr-20 19:01 35.102307 -120.529845 90 5076ft 90kts
11-Apr-20 19:02 35.098658 -120.498835 88 5914ft 94kts
11-Apr-20 19:03 35.095359 -120.458345 87 5982ft 120kts
11-Apr-20 19:04 35.092601 -120.413541 87 5987ft 145kts
11-Apr-20 19:05 35.090531 -120.362808 82 5989ft 151kts
11-Apr-20 19:06 35.091426 -120.311664 83 5981ft 150kts
11-Apr-20 19:07 35.092141 -120.260574 83 5989ft 151kts
11-Apr-20 19:08 35.092987 -120.209386 83 5985ft 150kts
11-Apr-20 19:09 35.093948 -120.158135 82 5980ft 151kts
11-Apr-20 19:10 35.090191 -120.109972 118 5978ft 142kts
11-Apr-20 19:11 35.072820 -120.069703 112 5973ft 125kts
11-Apr-20 19:12 35.059697 -120.033095 112 5970ft 109kts
11-Apr-20 19:13 35.047736 -119.999072 111 5974ft 120kts
11-Apr-20 19:14 35.033138 -119.956573 112 5968ft 144kts
11-Apr-20 19:15 35.017513 -119.911170 112 5968ft 145kts
11-Apr-20 19:16 35.001587 -119.865105 112 5632ft 151kts
11-Apr-20 19:17 34.985191 -119.816949 112 4940ft 154kts
11-Apr-20 19:18 34.969649 -119.771232 118 4226ft 119kts
11-Apr-20 19:19 34.955320 -119.740359 129 3515ft 100kts
11-Apr-20 19:20 34.932033 -119.727023 143 2970ft 87kts
11-Apr-20 19:21 34.923644 -119.705428 65 2993ft 87kts
11-Apr-20 19:22 34.916900 -119.680409 95 3650ft 79kts
11-Apr-20 19:23 34.924295 -119.668688 298 3078ft 66kts
11-Apr-20 19:24 34.936501 -119.676038 276 2356ft 45kts
11-Apr-20 19:25 34.939454 -119.684440 293 2182ft 23kts
11-Apr-20 19:26 34.942228 -119.690976 326 2156ft 0kts
11-Apr-20 19:27 34.942655 -119.690625 127 2156ft 0kts
11-Apr-20 19:28 34.942655 -119.690625 127 2156ft 0kts
11-Apr-20 19:29 34.942655 -119.690625 127 2156ft 0kts
11-Apr-20 19:30 34.942655 -119.690625 127 2156ft 0kts
11-Apr-20 19:31 34.942655 -119.690625 127 2156ft 0kts
11-Apr-20 19:32 34.942655 -119.690625 127 2156ft 0kts
11-Apr-20 19:33 34.942655 -119.690625 127 2156ft 0kts
11-Apr-20 19:34 34.942655 -119.690625 127 2156ft 0kts
11-Apr-20 19:35 34.942655 -119.690625 127 2156ft 0kts
11-Apr-20 19:36 34.942655 -119.690625 127 2156ft 0kts
11-Apr-20 19:37 34.942655 -119.690625 127 2156ft 0kts
11-Apr-20 19:38 34.942655 -119.690625 127 2156ft 0kts
11-Apr-20 19:39 34.942655 -119.690625 127 2156ft 0kts
11-Apr-20 19:40 34.942655 -119.690625 127 2156ft 0kts

Navigation Log

Ident Type
Flight plan parsing failed, navigation log unavailable